createdAt,value
2019-02-06T00:01:10.732Z,77.47
2019-02-06T00:03:40.894Z,72.90
2019-02-06T00:06:19.979Z,76.25
2019-02-06T00:08:50.137Z,80.83
2019-02-06T00:11:20.294Z,76.57
2019-02-06T00:13:51.364Z,96.65
2019-02-06T00:16:21.454Z,77.40
2019-02-06T00:18:56.514Z,81.37
2019-02-06T00:21:26.603Z,62.78
2019-02-06T00:24:09.116Z,75.05
2019-02-06T00:26:39.374Z,74.60
2019-02-06T00:29:10.398Z,64.82
2019-02-06T00:31:41.512Z,62.50
2019-02-06T00:34:17.394Z,62.60
2019-02-06T00:36:47.493Z,55.48
2019-02-06T00:39:17.583Z,76.60
2019-02-06T00:41:48.674Z,63.42
2019-02-06T00:44:19.738Z,59.63
2019-02-06T00:46:49.857Z,54.90
2019-02-06T00:49:21.970Z,64.10
2019-02-06T00:51:52.070Z,65.50
2019-02-06T00:54:24.082Z,70.72
2019-02-06T00:56:59.126Z,64.45
2019-02-06T00:59:29.247Z,74.87
2019-02-06T01:01:59.336Z,55.03
2019-02-06T01:04:29.443Z,73.95
2019-02-06T01:06:59.530Z,62.85
2019-02-06T01:09:30.622Z,70.62
2019-02-06T01:12:02.698Z,62.17
2019-02-06T01:14:32.959Z,57.43
2019-02-06T01:17:03.073Z,74.58
2019-02-06T01:19:33.166Z,61.13
2019-02-06T01:22:04.262Z,53.75
2019-02-06T01:24:35.358Z,61.25
2019-02-06T01:27:05.515Z,68.47
2019-02-06T01:29:36.530Z,48.90
2019-02-06T01:32:06.950Z,62.80
2019-02-06T01:34:37.066Z,62.48
2019-02-06T01:37:08.074Z,48.80
2019-02-06T01:39:40.142Z,64.58
2019-02-06T01:42:13.638Z,58.92
2019-02-06T01:44:45.734Z,57.38
2019-02-06T01:47:15.822Z,58.08
2019-02-06T01:49:45.911Z,63.48
2019-02-06T01:52:17.012Z,59.00
2019-02-06T01:54:47.130Z,58.02
2019-02-06T01:57:17.206Z,63.70
2019-02-06T01:59:47.566Z,64.75
2019-02-06T02:02:18.602Z,59.75
2019-02-06T02:04:49.630Z,57.75
2019-02-06T02:07:29.634Z,63.15
2019-02-06T02:09:59.722Z,55.73
2019-02-06T02:12:29.918Z,56.85
2019-02-06T02:15:00.010Z,53.95
2019-02-06T02:17:36.189Z,52.90
2019-02-06T02:20:21.282Z,57.98
2019-02-06T02:22:51.582Z,57.30
2019-02-06T02:25:27.794Z,59.00
2019-02-06T02:28:02.890Z,59.05
2019-02-06T02:30:43.349Z,67.40
2019-02-06T02:33:16.526Z,69.50
2019-02-06T02:35:46.621Z,63.52
2019-02-06T02:38:17.784Z,63.98
2019-02-06T02:40:48.912Z,61.53
2019-02-06T02:43:19.004Z,59.80
2019-02-06T02:45:49.177Z,58.02
2019-02-06T02:48:25.167Z,58.98
2019-02-06T02:50:55.288Z,61.40
2019-02-06T02:53:26.297Z,65.67
2019-02-06T02:55:56.393Z,62.00
2019-02-06T02:58:33.274Z,59.88
2019-02-06T03:01:20.014Z,66.25
2019-02-06T03:03:57.876Z,60.58
2019-02-06T03:06:28.982Z,54.42
2019-02-06T03:09:01.110Z,57.95
2019-02-06T03:11:31.162Z,67.67
2019-02-06T03:14:01.255Z,66.57
2019-02-06T03:16:37.497Z,51.85
2019-02-06T03:19:14.400Z,67.22
2019-02-06T03:21:44.495Z,59.18
2019-02-06T03:24:15.546Z,69.65
2019-02-06T03:26:45.663Z,59.77
2019-02-06T03:29:18.010Z,66.02
2019-02-06T03:31:56.997Z,78.10
2019-02-06T03:34:27.104Z,59.85
2019-02-06T03:36:57.219Z,61.88
2019-02-06T03:39:27.302Z,72.22
2019-02-06T03:42:06.246Z,71.97
2019-02-06T03:44:38.286Z,72.60
2019-02-06T03:47:09.366Z,63.63
2019-02-06T03:49:42.663Z,50.25
2019-02-06T03:52:13.195Z,52.50
2019-02-06T03:54:43.318Z,76.85
2019-02-06T03:57:13.411Z,68.28
2019-02-06T03:59:51.206Z,65.45
2019-02-06T04:02:23.262Z,66.25
2019-02-06T04:04:53.653Z,77.55
2019-02-06T04:07:30.146Z,60.50
2019-02-06T04:10:02.218Z,72.55
2019-02-06T04:12:39.099Z,53.75
2019-02-06T04:15:11.731Z,57.23
2019-02-06T04:17:41.855Z,53.90
2019-02-06T04:20:17.983Z,66.87
2019-02-06T04:22:48.074Z,70.22
2019-02-06T04:25:18.190Z,60.95
2019-02-06T04:27:51.374Z,71.82
2019-02-06T04:30:25.642Z,60.23
2019-02-06T04:33:01.542Z,68.40
2019-02-06T04:35:35.382Z,54.10
2019-02-06T04:38:25.342Z,55.33
2019-02-06T04:40:59.460Z,51.63
2019-02-06T04:43:30.598Z,60.40
2019-02-06T04:46:00.731Z,56.80
2019-02-06T04:48:33.904Z,58.40
2019-02-06T04:51:04.359Z,57.30
2019-02-06T04:53:34.466Z,60.30
2019-02-06T04:56:04.626Z,68.87
2019-02-06T04:58:34.722Z,63.60
2019-02-06T05:01:08.799Z,49.30
2019-02-06T05:03:39.846Z,65.17
2019-02-06T05:06:12.595Z,57.23
2019-02-06T05:08:43.690Z,75.08
2019-02-06T05:11:13.770Z,60.95
2019-02-06T05:13:51.168Z,68.70
2019-02-06T05:16:27.262Z,58.35
2019-02-06T05:18:57.371Z,58.48
2019-02-06T05:21:27.700Z,73.25
2019-02-06T05:23:58.022Z,78.25
2019-02-06T05:26:28.111Z,70.15
2019-02-06T05:28:58.207Z,64.60
2019-02-06T05:31:28.310Z,69.40
2019-02-06T05:33:59.390Z,68.60
2019-02-06T05:36:34.994Z,77.10
2019-02-06T05:39:09.248Z,64.90
2019-02-06T05:41:46.806Z,58.80
2019-02-06T05:44:16.916Z,61.00
2019-02-06T05:46:47.006Z,83.50
2019-02-06T05:49:17.658Z,56.83
2019-02-06T05:51:53.136Z,73.87
2019-02-06T05:54:23.258Z,66.85
2019-02-06T05:56:54.314Z,70.70
2019-02-06T05:59:25.345Z,64.77
2019-02-06T06:01:55.446Z,69.22
2019-02-06T06:04:26.582Z,73.05
2019-02-06T06:06:59.833Z,73.90
2019-02-06T06:09:29.990Z,54.25
2019-02-06T06:12:01.070Z,74.42
2019-02-06T06:14:37.019Z,83.55
2019-02-06T06:17:16.039Z,66.62
2019-02-06T06:19:47.295Z,77.00
2019-02-06T06:22:17.399Z,81.32
2019-02-06T06:24:48.575Z,68.40
2019-02-06T06:27:20.646Z,81.28
2019-02-06T06:29:55.887Z,70.87
2019-02-06T06:32:26.346Z,74.20
2019-02-06T06:34:56.410Z,75.22
2019-02-06T06:37:26.499Z,67.25
2019-02-06T06:39:57.611Z,75.30
2019-02-06T06:42:29.622Z,64.15
2019-02-06T06:45:16.427Z,72.62
2019-02-06T06:47:48.562Z,64.45
2019-02-06T06:50:28.883Z,67.53
2019-02-06T06:52:59.214Z,57.58
2019-02-06T06:55:29.466Z,71.37
2019-02-06T06:58:00.558Z,87.78
2019-02-06T07:00:32.158Z,78.57
2019-02-06T07:03:03.497Z,94.20
2019-02-06T07:05:34.582Z,84.67
2019-02-06T07:08:09.573Z,71.90
2019-02-06T07:10:38.847Z,71.62
2019-02-06T07:13:08.938Z,98.72
2019-02-06T07:15:39.078Z,92.42
2019-02-06T07:18:10.096Z,82.25
2019-02-06T07:20:40.191Z,90.95
2019-02-06T07:23:11.331Z,102.50
2019-02-06T07:25:41.418Z,76.47
2019-02-06T07:28:11.586Z,84.77
2019-02-06T07:30:41.679Z,81.45
2019-02-06T07:33:11.888Z,85.72
2019-02-06T07:35:42.313Z,90.55
2019-02-06T07:38:23.600Z,100.67
2019-02-06T07:40:44.210Z,94.30
2019-02-06T07:43:14.317Z,92.25
2019-02-06T07:45:44.430Z,92.72
2019-02-06T07:48:15.530Z,89.75
2019-02-06T07:50:46.634Z,75.52
2019-02-06T07:53:17.286Z,91.95
2019-02-06T07:55:47.382Z,99.92
2019-02-06T07:58:17.498Z,102.95
2019-02-06T08:00:47.578Z,90.90
2019-02-06T08:03:18.046Z,91.67
2019-02-06T08:05:48.162Z,81.00
2019-02-06T08:08:18.252Z,99.07
2019-02-06T08:10:48.366Z,91.15
2019-02-06T08:13:18.698Z,80.72
2019-02-06T08:15:48.801Z,84.05
2019-02-06T08:18:19.174Z,89.75
2019-02-06T08:20:49.307Z,99.32
2019-02-06T08:23:19.935Z,94.55
2019-02-06T08:25:50.110Z,87.57
2019-02-06T08:28:20.270Z,110.57
2019-02-06T08:30:50.354Z,86.08
2019-02-06T08:33:20.466Z,84.42
2019-02-06T08:35:51.566Z,81.80
2019-02-06T08:38:21.670Z,89.35
2019-02-06T08:40:51.759Z,77.22
2019-02-06T08:43:21.846Z,90.53
2019-02-06T08:45:53.282Z,91.55
2019-02-06T08:48:23.382Z,85.65
2019-02-06T08:50:53.466Z,83.95
2019-02-06T08:53:23.582Z,83.47
2019-02-06T08:55:53.666Z,81.42
2019-02-06T08:58:23.762Z,76.42
2019-02-06T09:00:54.162Z,74.47
2019-02-06T09:03:24.258Z,78.83
2019-02-06T09:05:54.362Z,86.32
2019-02-06T09:08:24.458Z,79.00
2019-02-06T09:10:54.550Z,68.25
2019-02-06T09:13:24.638Z,86.75
2019-02-06T09:15:54.734Z,68.02
2019-02-06T09:18:24.843Z,73.83
2019-02-06T09:20:54.958Z,83.07
2019-02-06T09:23:25.083Z,66.92
2019-02-06T09:25:57.497Z,74.30
2019-02-06T09:28:28.842Z,95.32
2019-02-06T09:30:58.946Z,68.90
2019-02-06T09:33:29.034Z,78.22
2019-02-06T09:35:59.118Z,62.90
2019-02-06T09:38:29.231Z,69.40
2019-02-06T09:41:00.266Z,61.63
2019-02-06T09:43:31.535Z,62.50
2019-02-06T09:46:02.502Z,64.97
2019-02-06T09:48:32.608Z,58.42
2019-02-06T09:51:02.726Z,62.23
2019-02-06T09:53:32.890Z,59.80
2019-02-06T09:56:04.970Z,57.88
2019-02-06T09:58:42.759Z,59.20
2019-02-06T10:01:15.407Z,60.63
2019-02-06T10:03:48.316Z,56.40
2019-02-06T10:06:19.378Z,54.60
2019-02-06T10:08:49.854Z,65.22
2019-02-06T10:11:21.770Z,51.28
2019-02-06T10:13:51.852Z,49.77
2019-02-06T10:16:23.860Z,59.25
2019-02-06T10:18:53.950Z,57.27
2019-02-06T10:21:30.155Z,57.70
2019-02-06T10:24:00.314Z,57.50
2019-02-06T10:26:37.671Z,51.23
2019-02-06T10:29:07.840Z,52.25
2019-02-06T10:31:38.007Z,53.48
2019-02-06T10:34:14.471Z,57.83
2019-02-06T10:36:44.569Z,53.40
2019-02-06T10:39:15.557Z,46.83
2019-02-06T10:41:45.818Z,53.38
2019-02-06T10:44:15.904Z,51.40
2019-02-06T10:46:46.387Z,46.13
2019-02-06T10:49:16.468Z,48.68
2019-02-06T10:51:47.459Z,52.90
2019-02-06T10:54:17.615Z,45.17
2019-02-06T10:57:01.639Z,54.18
2019-02-06T10:59:31.903Z,52.93
2019-02-06T11:02:01.997Z,47.95
2019-02-06T11:04:32.079Z,47.40
2019-02-06T11:07:02.173Z,46.25
2019-02-06T11:09:32.264Z,43.35
2019-02-06T11:12:02.355Z,48.40
2019-02-06T11:14:35.495Z,46.77
2019-02-06T11:17:14.623Z,48.50
2019-02-06T11:19:56.826Z,42.90
2019-02-06T11:22:28.784Z,50.23
2019-02-06T11:24:58.883Z,46.42
2019-02-06T11:27:28.968Z,46.75
2019-02-06T11:29:59.132Z,37.58
2019-02-06T11:32:31.111Z,42.10
2019-02-06T11:35:02.526Z,43.73
2019-02-06T11:37:32.855Z,38.53
2019-02-06T11:40:09.579Z,40.25
2019-02-06T11:42:39.659Z,32.90
2019-02-06T11:45:23.667Z,38.85
2019-02-06T11:47:57.464Z,41.55
2019-02-06T11:50:31.844Z,40.70
2019-02-06T11:53:02.869Z,35.58
2019-02-06T11:55:33.983Z,33.15
2019-02-06T11:58:07.592Z,38.95
2019-02-06T12:00:54.803Z,37.78
2019-02-06T12:03:24.888Z,35.83
2019-02-06T12:05:56.927Z,38.02
2019-02-06T12:08:31.282Z,40.15
2019-02-06T12:11:02.451Z,37.10
2019-02-06T12:13:40.484Z,43.15
2019-02-06T12:16:11.734Z,39.13
2019-02-06T12:18:45.740Z,37.38
2019-02-06T12:21:17.905Z,41.88
2019-02-06T12:23:48.547Z,41.58
2019-02-06T12:26:18.636Z,39.00
2019-02-06T12:28:48.739Z,45.33
2019-02-06T12:31:18.825Z,36.50
2019-02-06T12:33:49.855Z,37.28
2019-02-06T12:36:20.877Z,34.60
2019-02-06T12:38:53.843Z,38.83
2019-02-06T12:41:23.742Z,34.43
2019-02-06T12:43:53.799Z,43.13
2019-02-06T12:46:24.831Z,37.83
2019-02-06T12:48:55.870Z,35.98
2019-02-06T12:51:26.016Z,38.20
2019-02-06T12:53:57.095Z,35.45
2019-02-06T12:56:27.179Z,31.87
2019-02-06T12:58:59.256Z,38.28
2019-02-06T13:01:29.327Z,35.28
2019-02-06T13:03:59.411Z,37.08
2019-02-06T13:06:30.535Z,35.23
2019-02-06T13:09:00.618Z,42.00
2019-02-06T13:11:30.735Z,30.95
2019-02-06T13:14:00.891Z,33.02
2019-02-06T13:16:31.205Z,31.77
2019-02-06T13:19:03.463Z,35.90
2019-02-06T13:21:34.527Z,33.90
2019-02-06T13:24:06.579Z,30.68
2019-02-06T13:26:36.665Z,37.93
2019-02-06T13:29:11.787Z,33.33
2019-02-06T13:31:49.289Z,32.73
2019-02-06T13:34:19.371Z,34.15
2019-02-06T13:36:49.463Z,37.08
2019-02-06T13:39:19.547Z,36.20
2019-02-06T13:41:50.606Z,30.05
2019-02-06T13:44:29.618Z,32.38
2019-02-06T13:47:01.689Z,30.88
2019-02-06T13:49:33.749Z,36.13
2019-02-06T13:52:05.035Z,30.25
2019-02-06T13:54:40.699Z,36.55
2019-02-06T13:57:10.781Z,36.83
2019-02-06T13:59:41.807Z,38.28
2019-02-06T14:02:11.904Z,38.92
2019-02-06T14:04:42.962Z,37.40
2019-02-06T14:07:13.199Z,39.78
2019-02-06T14:09:44.267Z,35.50
2019-02-06T14:12:15.280Z,32.00
2019-02-06T14:14:46.327Z,41.25
2019-02-06T14:17:18.529Z,40.85
2019-02-06T14:19:48.627Z,37.95
2019-02-06T14:22:18.987Z,43.38
2019-02-06T14:24:49.084Z,36.93
2019-02-06T14:27:33.967Z,38.75
2019-02-06T14:30:23.327Z,47.60
2019-02-06T14:33:17.279Z,40.33
2019-02-06T14:35:57.647Z,42.15
2019-02-06T14:38:58.287Z,42.75
2019-02-06T14:41:42.102Z,42.65
2019-02-06T14:44:37.587Z,38.55
2019-02-06T14:47:15.016Z,53.40
2019-02-06T14:50:15.259Z,41.85
2019-02-06T14:53:16.207Z,43.05
2019-02-06T14:56:05.451Z,44.65
2019-02-06T14:59:14.621Z,40.67
2019-02-06T15:02:22.043Z,44.35
2019-02-06T15:05:31.771Z,46.08
2019-02-06T15:08:09.267Z,36.38
2019-02-06T15:10:44.003Z,38.45
2019-02-06T15:13:45.056Z,42.98
2019-02-06T15:16:21.031Z,36.40
2019-02-06T15:19:07.632Z,41.88
2019-02-06T15:21:44.819Z,42.95
2019-02-06T15:24:45.081Z,42.03
2019-02-06T15:27:25.079Z,41.05
2019-02-06T15:29:59.963Z,48.35
2019-02-06T15:32:50.699Z,41.58
2019-02-06T15:35:49.549Z,58.58
2019-02-06T15:38:29.958Z,48.10
2019-02-06T15:41:16.503Z,41.28
2019-02-06T15:43:58.081Z,59.23
2019-02-06T15:46:50.617Z,45.20
2019-02-06T15:49:40.351Z,39.50
2019-02-06T15:52:49.702Z,35.83
2019-02-06T15:55:55.998Z,42.98
2019-02-06T15:58:36.513Z,40.28
2019-02-06T16:01:21.455Z,46.63
2019-02-06T16:04:27.087Z,40.17
2019-02-06T16:07:10.383Z,43.60
2019-02-06T16:10:21.020Z,50.70
2019-02-06T16:13:11.552Z,53.20
2019-02-06T16:15:52.403Z,42.00
2019-02-06T16:18:45.791Z,46.25
2019-02-06T16:21:22.999Z,44.15
2019-02-06T16:24:21.836Z,54.15
2019-02-06T16:27:28.847Z,42.85
2019-02-06T16:30:28.491Z,44.08
2019-02-06T16:33:07.513Z,45.88
2019-02-06T16:36:02.439Z,32.67
2019-02-06T16:38:48.329Z,44.20
2019-02-06T16:41:28.791Z,31.42
2019-02-06T16:44:24.205Z,40.98
2019-02-06T16:47:19.324Z,45.58
2019-02-06T16:50:16.767Z,43.78
2019-02-06T16:53:18.123Z,44.38
2019-02-06T16:56:28.757Z,38.83
2019-02-06T16:59:11.477Z,45.40
2019-02-06T17:01:58.655Z,41.28
2019-02-06T17:04:48.611Z,36.33
2019-02-06T17:07:32.543Z,43.98
2019-02-06T17:10:30.636Z,42.17
2019-02-06T17:13:41.835Z,41.85
2019-02-06T17:16:25.311Z,36.70
2019-02-06T17:19:13.810Z,43.50
2019-02-06T17:22:22.067Z,35.00
2019-02-06T17:25:17.075Z,43.00
2019-02-06T17:28:00.579Z,52.03
2019-02-06T17:30:57.655Z,38.88
2019-02-06T17:33:48.747Z,43.28
2019-02-06T17:36:43.352Z,31.23
2019-02-06T17:39:29.731Z,38.05
2019-02-06T17:42:15.828Z,45.08
2019-02-06T17:45:19.171Z,38.95
2019-02-06T17:47:56.631Z,34.73
2019-02-06T17:50:49.208Z,41.70
2019-02-06T17:53:32.807Z,41.58
2019-02-06T17:56:05.539Z,38.67
2019-02-06T17:58:37.079Z,37.63
2019-02-06T18:01:13.815Z,40.73
2019-02-06T18:03:47.737Z,43.87
2019-02-06T18:06:18.155Z,50.00
2019-02-06T18:08:56.363Z,38.50
2019-02-06T18:11:21.087Z,41.02
2019-02-06T18:13:52.451Z,41.42
2019-02-06T18:16:25.643Z,42.58
2019-02-06T18:18:56.959Z,48.23
2019-02-06T18:21:31.031Z,41.10
2019-02-06T18:24:02.007Z,38.78
2019-02-06T18:26:35.383Z,39.55
2019-02-06T18:29:06.433Z,37.63
2019-02-06T18:31:36.627Z,48.98
2019-02-06T18:34:12.751Z,43.02
2019-02-06T18:36:42.926Z,39.40
2019-02-06T18:39:15.303Z,42.38
2019-02-06T18:41:46.862Z,49.00
2019-02-06T18:44:17.900Z,42.65
2019-02-06T18:46:49.380Z,52.30
2019-02-06T18:49:19.603Z,50.55
2019-02-06T18:51:54.759Z,42.10
2019-02-06T18:54:39.048Z,38.53
2019-02-06T18:57:09.251Z,45.03
2019-02-06T18:59:41.423Z,39.50
2019-02-06T19:02:13.637Z,32.63
2019-02-06T19:04:45.615Z,36.15
2019-02-06T19:07:16.783Z,40.58
2019-02-06T19:09:54.688Z,45.90
2019-02-06T19:12:25.820Z,39.42
2019-02-06T19:14:58.860Z,42.85
2019-02-06T19:17:31.152Z,40.23
2019-02-06T19:20:12.045Z,35.45
2019-02-06T19:22:42.203Z,43.10
2019-02-06T19:25:15.700Z,44.98
2019-02-06T19:27:45.951Z,34.43
2019-02-06T19:30:33.419Z,35.45
2019-02-06T19:33:05.167Z,56.30
2019-02-06T19:35:42.079Z,40.85
2019-02-06T19:38:14.163Z,42.23
2019-02-06T19:40:44.279Z,46.77
2019-02-06T19:43:15.373Z,38.40
2019-02-06T19:45:46.411Z,42.88
2019-02-06T19:48:19.192Z,36.73
2019-02-06T19:50:50.403Z,47.15
2019-02-06T19:53:21.644Z,46.13
2019-02-06T19:55:51.897Z,42.00
2019-02-06T19:58:25.063Z,47.33
2019-02-06T20:00:55.179Z,51.13
2019-02-06T20:03:34.343Z,52.58
2019-02-06T20:06:05.756Z,56.58
2019-02-06T20:08:38.957Z,54.90
2019-02-06T20:11:12.391Z,48.75
2019-02-06T20:13:44.517Z,42.27
2019-02-06T20:16:14.620Z,45.70
2019-02-06T20:18:44.783Z,51.58
2019-02-06T20:21:14.883Z,43.40
2019-02-06T20:23:45.039Z,49.83
2019-02-06T20:26:16.076Z,45.43
2019-02-06T20:28:47.111Z,47.55
2019-02-06T20:31:17.221Z,52.90
2019-02-06T20:33:48.297Z,51.60
2019-02-06T20:36:19.311Z,44.75
2019-02-06T20:38:51.988Z,37.53
2019-02-06T20:41:23.307Z,43.60
2019-02-06T20:43:58.375Z,44.83
2019-02-06T20:46:28.472Z,39.38
2019-02-06T20:48:59.623Z,42.75
2019-02-06T20:51:29.755Z,49.27
2019-02-06T20:53:59.841Z,43.08
2019-02-06T20:56:30.319Z,43.83
2019-02-06T20:59:06.651Z,48.80
2019-02-06T21:01:37.696Z,46.73
2019-02-06T21:04:08.842Z,51.15
2019-02-06T21:06:38.931Z,56.85
2019-02-06T21:09:12.533Z,49.30
2019-02-06T21:11:42.647Z,44.65
2019-02-06T21:14:12.847Z,57.78
2019-02-06T21:16:43.267Z,62.13
2019-02-06T21:19:13.359Z,68.42
2019-02-06T21:21:43.487Z,56.48
2019-02-06T21:24:13.756Z,56.23
2019-02-06T21:26:50.868Z,51.88
2019-02-06T21:29:23.131Z,54.67
2019-02-06T21:31:54.177Z,69.27
2019-02-06T21:34:24.341Z,56.77
2019-02-06T21:36:55.564Z,46.20
2019-02-06T21:39:27.280Z,68.25
2019-02-06T21:41:58.533Z,54.73
2019-02-06T21:44:28.643Z,43.75
2019-02-06T21:46:58.811Z,54.08
2019-02-06T21:49:29.307Z,48.80
2019-02-06T21:51:59.459Z,50.12
2019-02-06T21:54:31.483Z,60.63
2019-02-06T21:57:01.575Z,40.10
2019-02-06T21:59:33.739Z,54.55
2019-02-06T22:02:09.900Z,60.17
2019-02-06T22:04:42.172Z,38.80
2019-02-06T22:07:12.255Z,48.78
2019-02-06T22:09:42.363Z,46.50
2019-02-06T22:12:13.368Z,51.42
2019-02-06T22:14:43.639Z,61.05
2019-02-06T22:17:15.677Z,45.85
2019-02-06T22:19:49.568Z,42.88
2019-02-06T22:22:20.604Z,44.83
2019-02-06T22:24:52.604Z,46.37
2019-02-06T22:27:23.779Z,53.02
2019-02-06T22:29:53.967Z,40.70
2019-02-06T22:32:24.067Z,47.08
2019-02-06T22:34:55.139Z,52.98
2019-02-06T22:37:25.323Z,37.78
2019-02-06T22:39:55.427Z,42.55
2019-02-06T22:42:25.532Z,41.63
2019-02-06T22:44:55.637Z,49.08
2019-02-06T22:47:25.735Z,46.48
2019-02-06T22:49:57.764Z,37.03
2019-02-06T22:52:27.863Z,42.53
2019-02-06T22:54:58.226Z,42.98
2019-02-06T22:57:28.332Z,55.75
2019-02-06T22:59:58.452Z,54.35
2019-02-06T23:02:36.739Z,47.10
2019-02-06T23:05:08.804Z,49.10
2019-02-06T23:07:42.102Z,38.25
2019-02-06T23:10:12.416Z,49.05
2019-02-06T23:12:42.920Z,39.90
2019-02-06T23:15:14.948Z,38.33
2019-02-06T23:17:45.048Z,52.53
2019-02-06T23:20:15.528Z,41.28
2019-02-06T23:22:50.597Z,43.08
2019-02-06T23:25:20.963Z,56.45
2019-02-06T23:27:51.114Z,61.42
2019-02-06T23:30:21.168Z,62.25
2019-02-06T23:32:52.296Z,38.92
2019-02-06T23:35:22.412Z,43.55
2019-02-06T23:37:52.510Z,44.50
2019-02-06T23:40:22.608Z,37.75
2019-02-06T23:42:53.704Z,56.15
2019-02-06T23:45:24.185Z,52.48
2019-02-06T23:47:54.272Z,45.12
2019-02-06T23:50:25.276Z,47.53
2019-02-06T23:52:56.324Z,44.48
2019-02-06T23:55:27.374Z,55.95
2019-02-06T23:57:58.423Z,56.08
